createdAt,value
2023-05-11T00:02:01.114Z,12.90
2023-05-11T00:04:27.628Z,12.50
2023-05-11T00:06:54.869Z,12.32
2023-05-11T00:09:21.351Z,12.12
2023-05-11T00:11:47.655Z,12.01
2023-05-11T00:14:13.939Z,12.24
2023-05-11T00:16:40.266Z,12.41
2023-05-11T00:19:06.731Z,12.45
2023-05-11T00:21:33.481Z,12.55
2023-05-11T00:23:59.751Z,12.63
2023-05-11T00:26:26.692Z,12.81
2023-05-11T00:28:53.076Z,12.97
2023-05-11T00:31:19.381Z,12.96
2023-05-11T00:33:45.780Z,12.71
2023-05-11T00:36:12.048Z,12.59
2023-05-11T00:38:41.100Z,12.77
2023-05-11T00:41:08.075Z,12.85
2023-05-11T00:43:34.438Z,12.90
2023-05-11T00:46:01.704Z,12.79
2023-05-11T00:48:28.028Z,12.63
2023-05-11T00:50:54.486Z,12.67
2023-05-11T00:53:20.790Z,12.67
2023-05-11T00:55:47.075Z,12.55
2023-05-11T00:58:13.360Z,12.70
2023-05-11T01:00:39.913Z,12.54
2023-05-11T01:03:07.173Z,12.23
2023-05-11T01:05:45.736Z,12.09
2023-05-11T01:08:12.797Z,12.18
2023-05-11T01:10:42.680Z,12.23
2023-05-11T01:13:18.174Z,12.43
2023-05-11T01:15:48.466Z,12.26
2023-05-11T01:18:31.058Z,12.12
2023-05-11T01:20:58.557Z,11.90
2023-05-11T01:23:31.146Z,11.68
2023-05-11T01:26:06.563Z,11.70
2023-05-11T01:28:45.059Z,11.62
2023-05-11T01:31:11.682Z,11.44
2023-05-11T01:33:40.629Z,11.04
2023-05-11T01:36:08.550Z,11.17
2023-05-11T01:38:35.749Z,11.53
2023-05-11T01:41:03.755Z,11.80
2023-05-11T01:43:30.043Z,12.10
2023-05-11T01:45:58.773Z,12.53
2023-05-11T01:48:25.817Z,12.83
2023-05-11T01:50:52.343Z,13.05
2023-05-11T01:53:18.642Z,13.14
2023-05-11T01:55:45.656Z,13.17
2023-05-11T01:58:12.931Z,13.31
2023-05-11T02:00:39.273Z,13.29
2023-05-11T02:03:05.753Z,13.01
2023-05-11T02:05:32.184Z,12.89
2023-05-11T02:07:58.599Z,13.01
2023-05-11T02:10:25.357Z,13.15
2023-05-11T02:12:52.203Z,12.99
2023-05-11T02:15:18.501Z,13.20
2023-05-11T02:17:44.839Z,13.04
2023-05-11T02:20:11.249Z,12.08
2023-05-11T02:22:37.542Z,12.31
2023-05-11T02:25:04.069Z,12.65
2023-05-11T02:27:30.438Z,12.87
2023-05-11T02:29:56.732Z,13.03
2023-05-11T02:32:23.194Z,13.18
2023-05-11T02:34:55.424Z,13.24
2023-05-11T02:37:22.700Z,13.26
2023-05-11T02:39:50.352Z,13.19
2023-05-11T02:42:20.845Z,13.14
2023-05-11T02:44:58.028Z,13.06
2023-05-11T02:47:26.896Z,13.10
2023-05-11T02:49:54.191Z,13.18
2023-05-11T02:52:21.315Z,13.13
2023-05-11T02:54:48.531Z,13.13
2023-05-11T02:57:14.892Z,13.20
2023-05-11T02:59:41.181Z,13.33
2023-05-11T03:02:07.761Z,13.05
2023-05-11T03:04:34.219Z,12.66
2023-05-11T03:07:00.716Z,12.65
2023-05-11T03:09:27.000Z,12.66
2023-05-11T03:11:53.294Z,12.86
2023-05-11T03:14:19.649Z,12.65
2023-05-11T03:16:45.996Z,12.87
2023-05-11T03:19:12.326Z,12.93
2023-05-11T03:21:38.686Z,13.03
2023-05-11T03:24:05.776Z,13.09
2023-05-11T03:26:32.119Z,13.19
2023-05-11T03:28:58.433Z,13.19
2023-05-11T03:31:24.756Z,12.84
2023-05-11T03:33:51.073Z,11.69
2023-05-11T03:36:17.405Z,11.13
2023-05-11T03:38:44.955Z,11.79
2023-05-11T03:41:11.486Z,12.09
2023-05-11T03:43:37.779Z,12.15
2023-05-11T03:46:04.327Z,12.34
2023-05-11T03:48:32.062Z,12.30
2023-05-11T03:50:58.526Z,12.34
2023-05-11T03:53:24.819Z,12.14
2023-05-11T03:55:52.758Z,12.15
2023-05-11T03:58:19.048Z,12.10
2023-05-11T04:00:45.433Z,11.94
2023-05-11T04:03:12.276Z,12.10
2023-05-11T04:05:38.697Z,11.87
2023-05-11T04:08:05.373Z,12.09
2023-05-11T04:10:31.659Z,12.26
2023-05-11T04:12:57.950Z,12.42
2023-05-11T04:15:24.230Z,12.36
2023-05-11T04:17:50.538Z,12.15
2023-05-11T04:20:17.098Z,12.06
2023-05-11T04:22:43.629Z,12.13
2023-05-11T04:25:09.919Z,12.29
2023-05-11T04:27:36.200Z,12.42
2023-05-11T04:30:02.527Z,12.28
2023-05-11T04:32:29.869Z,12.55
2023-05-11T04:34:56.183Z,12.77
2023-05-11T04:37:22.509Z,12.75
2023-05-11T04:39:48.808Z,12.89
2023-05-11T04:42:15.288Z,12.93
2023-05-11T04:44:41.677Z,12.98
2023-05-11T04:47:08.023Z,12.95
2023-05-11T04:49:34.350Z,12.87
2023-05-11T04:52:00.695Z,12.87
2023-05-11T04:54:27.000Z,12.88
2023-05-11T04:56:53.294Z,12.94
2023-05-11T04:59:19.591Z,12.96
2023-05-11T05:01:45.882Z,12.97
2023-05-11T05:04:12.362Z,12.89
2023-05-11T05:06:38.821Z,12.84
2023-05-11T05:09:05.113Z,12.85
2023-05-11T05:11:32.088Z,12.47
2023-05-11T05:13:58.418Z,12.83
2023-05-11T05:16:24.742Z,12.96
2023-05-11T05:18:51.134Z,12.95
2023-05-11T05:21:17.433Z,13.04
2023-05-11T05:23:43.736Z,13.09
2023-05-11T05:26:10.047Z,13.21
2023-05-11T05:28:36.329Z,12.86
2023-05-11T05:31:02.651Z,11.98
2023-05-11T05:33:28.961Z,12.00
2023-05-11T05:35:55.293Z,12.06
2023-05-11T05:38:21.559Z,11.99
2023-05-11T05:40:47.871Z,12.48
2023-05-11T05:43:14.150Z,12.66
2023-05-11T05:45:40.472Z,12.80
2023-05-11T05:48:06.834Z,12.31
2023-05-11T05:50:33.170Z,12.11
2023-05-11T05:52:59.488Z,12.25
2023-05-11T05:55:25.787Z,12.21
2023-05-11T05:57:52.118Z,12.09
2023-05-11T06:00:18.659Z,12.62
2023-05-11T06:02:45.342Z,12.69
2023-05-11T06:05:11.761Z,12.47
2023-05-11T06:07:38.183Z,13.06
2023-05-11T06:10:04.756Z,13.17
2023-05-11T06:12:31.158Z,12.72
2023-05-11T06:14:57.855Z,12.24
2023-05-11T06:17:24.207Z,12.06
2023-05-11T06:19:50.577Z,11.12
2023-05-11T06:22:16.920Z,11.22
2023-05-11T06:24:43.205Z,10.88
2023-05-11T06:27:09.534Z,10.81
2023-05-11T06:29:35.840Z,10.72
2023-05-11T06:32:02.333Z,10.93
2023-05-11T06:34:28.794Z,11.12
2023-05-11T06:36:55.213Z,10.80
2023-05-11T06:39:21.488Z,10.88
2023-05-11T06:41:47.836Z,11.54
2023-05-11T06:44:14.141Z,11.46
2023-05-11T06:46:40.495Z,11.81
2023-05-11T06:49:07.517Z,11.79
2023-05-11T06:51:33.809Z,11.30
2023-05-11T06:54:00.881Z,11.52
2023-05-11T06:56:27.998Z,11.86
2023-05-11T06:58:54.295Z,11.63
2023-05-11T07:01:20.851Z,12.25
2023-05-11T07:03:49.013Z,11.90
2023-05-11T07:06:15.456Z,11.71
2023-05-11T07:08:41.980Z,11.92
2023-05-11T07:11:08.289Z,11.74
2023-05-11T07:13:34.622Z,11.60
2023-05-11T07:16:00.959Z,11.12
2023-05-11T07:18:27.349Z,11.43
2023-05-11T07:20:53.681Z,11.81
2023-05-11T07:23:19.975Z,12.19
2023-05-11T07:25:46.267Z,12.57
2023-05-11T07:28:12.537Z,12.44
2023-05-11T07:30:38.826Z,12.08
2023-05-11T07:33:06.484Z,12.42
2023-05-11T07:35:32.828Z,13.06
2023-05-11T07:37:59.146Z,12.04
2023-05-11T07:40:25.600Z,12.23
2023-05-11T07:42:51.921Z,12.34
2023-05-11T07:45:18.282Z,12.04
2023-05-11T07:47:44.925Z,11.73
2023-05-11T07:50:11.424Z,11.91
2023-05-11T07:52:37.850Z,12.40
2023-05-11T07:55:04.554Z,12.10
2023-05-11T07:57:31.006Z,11.64
2023-05-11T07:59:57.374Z,11.92
2023-05-11T08:02:23.745Z,12.50
2023-05-11T08:04:50.237Z,12.40
2023-05-11T08:07:16.643Z,12.65
2023-05-11T08:09:42.949Z,12.51
2023-05-11T08:12:09.347Z,12.12
2023-05-11T08:14:35.714Z,12.17
2023-05-11T08:17:02.192Z,12.23
2023-05-11T08:19:28.497Z,12.08
2023-05-11T08:21:54.848Z,11.75
2023-05-11T08:24:21.226Z,12.01
2023-05-11T08:26:48.431Z,12.21
2023-05-11T08:29:14.746Z,12.31
2023-05-11T08:31:41.170Z,12.21
2023-05-11T08:34:18.699Z,12.47
2023-05-11T08:36:46.725Z,13.13
2023-05-11T08:39:13.188Z,13.22
2023-05-11T08:41:39.486Z,13.08
2023-05-11T08:44:05.790Z,13.18
2023-05-11T08:46:32.124Z,13.53
2023-05-11T08:48:58.483Z,13.53
2023-05-11T08:51:24.875Z,13.26
2023-05-11T08:53:52.932Z,13.74
2023-05-11T08:56:19.260Z,13.39
2023-05-11T08:58:45.549Z,12.79
2023-05-11T09:01:12.362Z,12.99
2023-05-11T09:03:39.199Z,12.73
2023-05-11T09:06:07.228Z,12.44
2023-05-11T09:08:36.541Z,12.57
2023-05-11T09:11:02.990Z,12.46
2023-05-11T09:13:29.793Z,13.06
2023-05-11T09:15:56.144Z,13.18
2023-05-11T09:18:22.508Z,12.95
2023-05-11T09:20:49.260Z,12.83
2023-05-11T09:23:16.013Z,12.63
2023-05-11T09:25:42.304Z,12.89
2023-05-11T09:28:15.751Z,12.89
2023-05-11T09:30:42.383Z,12.99
2023-05-11T09:33:08.723Z,13.38
2023-05-11T09:35:35.735Z,13.41
2023-05-11T09:38:04.570Z,13.47
2023-05-11T09:40:35.134Z,13.37
2023-05-11T09:43:02.073Z,13.62
2023-05-11T09:45:41.853Z,13.60
2023-05-11T09:48:13.997Z,13.83
2023-05-11T09:50:40.333Z,13.74
2023-05-11T09:53:06.883Z,13.60
2023-05-11T09:55:33.219Z,13.11
2023-05-11T09:57:59.616Z,13.18
2023-05-11T10:00:25.912Z,13.16
2023-05-11T10:03:04.860Z,13.14
2023-05-11T10:05:31.941Z,13.59
2023-05-11T10:07:59.197Z,13.41
2023-05-11T10:10:26.392Z,13.64
2023-05-11T10:12:52.684Z,13.48
2023-05-11T10:15:21.174Z,13.19
2023-05-11T10:17:47.688Z,13.44
2023-05-11T10:20:14.047Z,13.35
2023-05-11T10:22:40.599Z,13.23
2023-05-11T10:25:07.193Z,13.71
2023-05-11T10:27:33.521Z,13.75
2023-05-11T10:29:59.957Z,14.06
2023-05-11T10:32:26.335Z,13.99
2023-05-11T10:34:52.693Z,14.21
2023-05-11T10:37:20.977Z,13.98
2023-05-11T10:39:49.933Z,13.85
2023-05-11T10:42:30.754Z,14.28
2023-05-11T10:45:15.447Z,14.09
2023-05-11T10:48:00.581Z,13.63
2023-05-11T10:50:42.966Z,13.59
2023-05-11T10:53:18.413Z,13.53
2023-05-11T10:55:49.997Z,13.90
2023-05-11T10:58:32.801Z,13.93
2023-05-11T11:00:59.139Z,14.15
2023-05-11T11:03:25.626Z,14.21
2023-05-11T11:05:52.015Z,13.94
2023-05-11T11:08:18.327Z,13.95
2023-05-11T11:10:46.112Z,13.60
2023-05-11T11:13:13.306Z,13.67
2023-05-11T11:15:58.894Z,13.93
2023-05-11T11:18:25.926Z,14.09
2023-05-11T11:20:55.697Z,13.90
2023-05-11T11:23:40.443Z,13.35
2023-05-11T11:26:07.574Z,13.33
2023-05-11T11:28:52.652Z,13.47
2023-05-11T11:31:22.553Z,13.31
2023-05-11T11:33:48.842Z,13.40
2023-05-11T11:36:16.301Z,13.61
2023-05-11T11:38:59.660Z,13.44
2023-05-11T11:41:29.320Z,13.51
2023-05-11T11:43:55.642Z,13.90
2023-05-11T11:46:25.882Z,14.23
2023-05-11T11:48:54.384Z,14.29
2023-05-11T11:51:21.318Z,14.29
2023-05-11T11:53:51.130Z,14.23
2023-05-11T11:56:36.686Z,14.21
2023-05-11T11:59:05.160Z,14.31
2023-05-11T12:01:38.088Z,14.63
2023-05-11T12:04:04.525Z,14.88
2023-05-11T12:06:34.758Z,14.98
2023-05-11T12:09:01.060Z,14.95
2023-05-11T12:11:27.467Z,14.53
2023-05-11T12:13:53.756Z,15.07
2023-05-11T12:16:20.075Z,15.23
2023-05-11T12:18:53.077Z,14.95
2023-05-11T12:21:19.923Z,15.58
2023-05-11T12:23:55.233Z,15.95
2023-05-11T12:26:21.851Z,15.90
2023-05-11T12:28:51.228Z,15.29
2023-05-11T12:31:17.963Z,15.17
2023-05-11T12:33:47.656Z,14.78
2023-05-11T12:36:14.735Z,14.64
2023-05-11T12:38:43.082Z,14.75
2023-05-11T12:41:09.377Z,14.84
2023-05-11T12:43:35.667Z,14.86
2023-05-11T12:46:02.236Z,14.65
2023-05-11T12:48:28.541Z,15.09
2023-05-11T12:50:54.835Z,15.17
2023-05-11T12:53:22.430Z,15.46
2023-05-11T12:55:58.190Z,15.61
2023-05-11T12:58:24.506Z,15.48
2023-05-11T13:00:50.807Z,15.22
2023-05-11T13:03:20.766Z,15.49
2023-05-11T13:05:47.769Z,15.40
2023-05-11T13:08:14.696Z,15.59
2023-05-11T13:10:41.005Z,15.63
2023-05-11T13:13:07.296Z,15.54
2023-05-11T13:15:33.692Z,15.92
2023-05-11T13:18:03.306Z,15.70
2023-05-11T13:20:30.473Z,15.29
2023-05-11T13:23:03.007Z,15.37
2023-05-11T13:25:29.309Z,15.66
2023-05-11T13:27:55.843Z,15.74
2023-05-11T13:30:22.159Z,15.85
2023-05-11T13:32:48.626Z,15.58
2023-05-11T13:35:15.339Z,15.89
2023-05-11T13:37:41.638Z,15.35
2023-05-11T13:40:10.840Z,15.42
2023-05-11T13:42:37.424Z,15.77
2023-05-11T13:45:03.844Z,15.99
2023-05-11T13:47:31.069Z,15.86
2023-05-11T13:49:57.404Z,15.06
2023-05-11T13:52:23.686Z,15.19
2023-05-11T13:54:49.984Z,15.45
2023-05-11T13:57:16.326Z,15.75
2023-05-11T13:59:42.695Z,15.92
2023-05-11T14:02:09.171Z,16.37
2023-05-11T14:04:35.612Z,16.15
2023-05-11T14:07:01.893Z,16.53
2023-05-11T14:09:28.178Z,16.58
2023-05-11T14:11:54.521Z,16.31
2023-05-11T14:14:20.801Z,16.08
2023-05-11T14:16:47.111Z,15.88
2023-05-11T14:19:13.671Z,15.58
2023-05-11T14:21:40.075Z,15.94
2023-05-11T14:24:11.997Z,15.92
2023-05-11T14:26:39.052Z,15.67
2023-05-11T14:29:05.378Z,15.47
2023-05-11T14:31:32.377Z,15.73
2023-05-11T14:33:58.794Z,15.69
2023-05-11T14:36:25.130Z,15.92
2023-05-11T14:38:51.919Z,15.85
2023-05-11T14:41:18.931Z,16.16
2023-05-11T14:43:46.157Z,16.09
2023-05-11T14:46:12.580Z,16.19
2023-05-11T14:48:38.888Z,15.88
2023-05-11T14:51:05.408Z,16.04
2023-05-11T14:53:31.708Z,15.98
2023-05-11T14:55:57.989Z,15.95
2023-05-11T14:58:24.299Z,16.33
2023-05-11T15:00:50.689Z,16.30
2023-05-11T15:03:17.040Z,16.49
2023-05-11T15:05:43.413Z,16.36
2023-05-11T15:08:21.753Z,15.72
2023-05-11T15:10:55.048Z,15.40
2023-05-11T15:13:22.412Z,15.58
2023-05-11T15:15:48.813Z,15.77
2023-05-11T15:18:16.459Z,15.91
2023-05-11T15:20:43.251Z,15.99
2023-05-11T15:23:09.677Z,16.16
2023-05-11T15:25:36.184Z,15.50
2023-05-11T15:28:02.780Z,15.26
2023-05-11T15:30:31.430Z,15.39
2023-05-11T15:32:59.266Z,15.60
2023-05-11T15:35:25.596Z,16.00
2023-05-11T15:37:51.895Z,16.26
2023-05-11T15:40:18.275Z,16.48
2023-05-11T15:42:44.635Z,16.78
2023-05-11T15:45:10.962Z,17.01
2023-05-11T15:47:37.913Z,17.09
2023-05-11T15:50:04.347Z,16.65
2023-05-11T15:52:30.633Z,16.00
2023-05-11T15:54:56.912Z,16.08
2023-05-11T15:57:23.179Z,15.94
2023-05-11T15:59:49.474Z,15.86
2023-05-11T16:02:15.863Z,16.33
2023-05-11T16:04:42.236Z,16.54
2023-05-11T16:07:08.497Z,15.96
2023-05-11T16:09:34.811Z,15.63
2023-05-11T16:12:01.542Z,15.50
2023-05-11T16:14:27.906Z,15.35
2023-05-11T16:16:54.339Z,15.22
2023-05-11T16:19:20.695Z,15.62
2023-05-11T16:21:46.983Z,15.73
2023-05-11T16:24:13.394Z,15.69
2023-05-11T16:26:40.042Z,15.84
2023-05-11T16:29:06.929Z,15.62
2023-05-11T16:31:33.501Z,15.76
2023-05-11T16:34:00.153Z,16.01
2023-05-11T16:36:26.449Z,16.29
2023-05-11T16:38:52.740Z,16.14
2023-05-11T16:41:19.085Z,15.70
2023-05-11T16:43:46.108Z,15.67
2023-05-11T16:46:12.457Z,15.78
2023-05-11T16:48:38.810Z,16.20
2023-05-11T16:51:05.083Z,16.47
2023-05-11T16:53:31.797Z,16.63
2023-05-11T16:55:58.154Z,16.62
2023-05-11T16:58:24.438Z,16.49
2023-05-11T17:00:51.035Z,15.57
2023-05-11T17:03:17.714Z,15.26
2023-05-11T17:05:44.693Z,15.97
2023-05-11T17:08:11.085Z,15.54
2023-05-11T17:10:37.459Z,15.40
2023-05-11T17:13:03.757Z,15.57
2023-05-11T17:15:30.040Z,15.72
2023-05-11T17:17:56.376Z,15.95
2023-05-11T17:20:22.821Z,16.04
2023-05-11T17:22:49.115Z,16.15
2023-05-11T17:25:15.426Z,16.04
2023-05-11T17:27:41.820Z,16.16
2023-05-11T17:30:09.521Z,16.10
2023-05-11T17:32:36.397Z,16.23
2023-05-11T17:35:04.090Z,15.93
2023-05-11T17:37:32.154Z,16.24
2023-05-11T17:39:59.591Z,16.04
2023-05-11T17:42:25.914Z,16.10
2023-05-11T17:44:52.489Z,16.12
2023-05-11T17:47:19.052Z,16.30
2023-05-11T17:49:45.347Z,16.48
2023-05-11T17:52:11.696Z,16.53
2023-05-11T17:54:37.976Z,16.65
2023-05-11T17:57:05.100Z,16.66
2023-05-11T17:59:31.392Z,16.63
2023-05-11T18:01:58.787Z,16.69
2023-05-11T18:04:25.225Z,16.67
2023-05-11T18:06:51.854Z,16.55
2023-05-11T18:09:19.557Z,16.23
2023-05-11T18:11:45.860Z,16.00
2023-05-11T18:14:12.161Z,16.08
2023-05-11T18:16:38.565Z,16.18
2023-05-11T18:19:05.206Z,16.14
2023-05-11T18:21:31.956Z,16.08
2023-05-11T18:23:58.267Z,16.04
2023-05-11T18:26:25.908Z,16.12
2023-05-11T18:28:54.564Z,16.15
2023-05-11T18:31:21.530Z,16.06
2023-05-11T18:33:49.010Z,15.84
2023-05-11T18:36:15.727Z,15.90
2023-05-11T18:38:43.308Z,16.02
2023-05-11T18:41:09.587Z,16.10
2023-05-11T18:43:35.974Z,16.11
2023-05-11T18:46:06.269Z,16.12
2023-05-11T18:48:33.601Z,16.08
2023-05-11T18:50:59.965Z,15.89
2023-05-11T18:53:26.569Z,15.92
2023-05-11T18:55:53.837Z,15.89
2023-05-11T18:58:20.581Z,15.83
2023-05-11T19:00:48.400Z,15.76
2023-05-11T19:03:15.147Z,15.68
2023-05-11T19:05:42.808Z,15.68
2023-05-11T19:08:09.194Z,15.71
2023-05-11T19:10:37.800Z,15.66
2023-05-11T19:13:04.281Z,15.67
2023-05-11T19:15:30.597Z,15.66
2023-05-11T19:17:56.959Z,15.66
2023-05-11T19:20:23.299Z,15.54
2023-05-11T19:22:49.599Z,15.42
2023-05-11T19:25:16.000Z,15.44
2023-05-11T19:27:42.283Z,15.42
2023-05-11T19:30:09.420Z,15.21
2023-05-11T19:32:35.931Z,14.74
2023-05-11T19:35:02.269Z,14.72
2023-05-11T19:37:28.552Z,14.99
2023-05-11T19:39:59.534Z,15.02
2023-05-11T19:42:39.806Z,15.08
2023-05-11T19:45:06.939Z,15.02
2023-05-11T19:47:33.334Z,15.16
2023-05-11T19:49:59.677Z,15.13
2023-05-11T19:52:25.971Z,14.71
2023-05-11T19:54:52.264Z,14.55
2023-05-11T19:57:19.712Z,14.46
2023-05-11T19:59:45.995Z,14.43
2023-05-11T20:02:12.287Z,14.22
2023-05-11T20:04:39.815Z,14.08
2023-05-11T20:07:06.189Z,14.18
2023-05-11T20:09:32.483Z,14.07
2023-05-11T20:11:58.803Z,14.08
2023-05-11T20:14:25.163Z,14.34
2023-05-11T20:16:51.449Z,14.30
2023-05-11T20:19:17.714Z,14.18
2023-05-11T20:21:44.011Z,14.06
2023-05-11T20:24:10.304Z,14.31
2023-05-11T20:26:39.503Z,14.35
2023-05-11T20:29:07.724Z,14.41
2023-05-11T20:31:34.152Z,14.58
2023-05-11T20:36:30.313Z,14.49
2023-05-11T20:38:56.652Z,14.42
2023-05-11T20:41:23.149Z,14.64
2023-05-11T20:43:49.623Z,14.65
2023-05-11T20:46:16.017Z,14.38
2023-05-11T20:48:45.153Z,14.45
2023-05-11T20:51:14.535Z,14.53
2023-05-11T20:53:40.844Z,14.54
2023-05-11T20:56:09.924Z,14.50
2023-05-11T20:58:36.467Z,14.36
2023-05-11T21:01:02.873Z,14.16
2023-05-11T21:03:29.312Z,14.10
2023-05-11T21:05:56.068Z,14.13
2023-05-11T21:08:22.376Z,14.22
2023-05-11T21:10:48.678Z,14.32
2023-05-11T21:13:14.981Z,14.25
2023-05-11T21:15:41.325Z,14.25
2023-05-11T21:18:07.728Z,14.37
2023-05-11T21:20:34.055Z,14.45
2023-05-11T21:23:00.419Z,14.31
2023-05-11T21:25:26.705Z,13.83
2023-05-11T21:27:53.011Z,13.55
2023-05-11T21:30:19.477Z,13.31
2023-05-11T21:32:46.263Z,13.33
2023-05-11T21:35:14.891Z,13.64
2023-05-11T21:37:41.587Z,13.63
2023-05-11T21:40:08.266Z,13.41
2023-05-11T21:42:36.105Z,13.13
2023-05-11T21:45:02.797Z,13.06
2023-05-11T21:47:29.103Z,13.12
2023-05-11T21:49:55.408Z,12.99
2023-05-11T21:52:21.692Z,12.85
2023-05-11T21:54:47.975Z,12.81
2023-05-11T21:57:14.289Z,12.78
2023-05-11T21:59:40.598Z,12.76
2023-05-11T22:02:06.993Z,12.86
2023-05-11T22:04:33.332Z,12.76
2023-05-11T22:07:01.548Z,12.72
2023-05-11T22:09:28.312Z,12.54
2023-05-11T22:11:54.584Z,12.50
2023-05-11T22:14:23.901Z,12.54
2023-05-11T22:16:50.308Z,12.63
2023-05-11T22:19:16.671Z,12.67
2023-05-11T22:21:42.945Z,12.88
2023-05-11T22:24:09.297Z,13.01
2023-05-11T22:26:35.622Z,13.26
2023-05-11T22:29:01.960Z,13.18
2023-05-11T22:31:28.270Z,13.29
2023-05-11T22:33:54.558Z,13.43
2023-05-11T22:36:21.064Z,13.53
2023-05-11T22:38:47.359Z,13.80
2023-05-11T22:41:13.660Z,13.88
2023-05-11T22:43:39.953Z,14.02
2023-05-11T22:46:06.369Z,13.84
2023-05-11T22:48:32.822Z,13.88
2023-05-11T22:50:59.315Z,13.95
2023-05-11T22:53:26.024Z,14.00
2023-05-11T22:55:52.312Z,13.97
2023-05-11T22:58:18.620Z,13.95
2023-05-11T23:00:45.893Z,13.88
2023-05-11T23:03:12.402Z,13.98
2023-05-11T23:05:38.870Z,13.95
2023-05-11T23:08:05.226Z,14.04
2023-05-11T23:10:32.074Z,14.02
2023-05-11T23:12:58.391Z,14.10
2023-05-11T23:15:24.675Z,14.16
2023-05-11T23:17:51.175Z,14.16
2023-05-11T23:20:17.661Z,13.98
2023-05-11T23:22:44.071Z,13.47
2023-05-11T23:25:10.514Z,13.46
2023-05-11T23:27:36.830Z,13.66
2023-05-11T23:30:03.829Z,13.77
2023-05-11T23:32:30.165Z,13.82
2023-05-11T23:34:56.490Z,13.71
2023-05-11T23:37:22.830Z,13.92
2023-05-11T23:39:49.127Z,14.04
2023-05-11T23:42:15.467Z,14.07
2023-05-11T23:44:41.764Z,14.09
2023-05-11T23:47:08.106Z,14.05
2023-05-11T23:49:34.508Z,14.05
2023-05-11T23:52:00.827Z,14.18
2023-05-11T23:54:27.557Z,14.17
2023-05-11T23:56:54.175Z,14.21
2023-05-11T23:59:20.522Z,14.22
